• Join FlightAware (Why Join?)
  • Login
  • US Flag 
02:53PM EST


 

Airport Tracker/Info


-or-


 

Live Flight TrackerFlight Track Log ✈ SWA1821 ✈ 07-Jun-2014 ✈ KMCI - KBOS

Flight Track Log - Related Links

Times and Time Zones

All times are in EDT time to prevent confusion due to time zone crossing. See the SWA1821 flight status page for this flight to view local times or setup timezone preferences in your user account.

Time Position Orientation Groundspeed Altitude Reporting Facility
EDT Latitude Longitude Course Direction KTS MPH feet Rate Location/Type
03:42PM 39.3167 -94.7000 55° Northeast 153 176 1,700  Level Kansas City TRACON
03:44PM 39.3544 -94.6306 55° Northeast 228 262 4,100 2,160 Climbing Kansas City Center
03:45PM 39.3550 -94.5386 90° East 257 296 6,800 3,060 Climbing Kansas City Center
03:46PM 39.3625 -94.4364 85° East 285 328 10,400 2,700 Climbing Kansas City Center
03:47PM 39.3678 -94.3203 87° East 326 375 12,400 2,160 Climbing Kansas City Center
03:48PM 39.3744 -94.1822 86° East 382 440 15,000 2,700 Climbing Kansas City Center
03:49PM 39.3808 -94.0392 87° East 397 457 17,900 2,580 Climbing Kansas City Center
03:50PM 39.3922 -93.8903 84° East 415 478 20,300 2,160 Climbing Kansas City Center
03:51PM 39.4119 -93.7439 80° East 431 496 22,400 2,280 Climbing Kansas City Center
03:52PM 39.4369 -93.5517 80° East 452 520 25,000 2,220 Climbing Kansas City Center
03:53PM 39.4564 -93.3883 81° East 458 527 27,100 1,740 Climbing Kansas City Center
03:54PM 39.4764 -93.2214 81° East 469 540 28,700 1,440 Climbing Kansas City Center
03:55PM 39.4958 -93.0489 82° East 485 558 30,100 1,260 Climbing Kansas City Center
03:56PM 39.5169 -92.8703 81° East 496 571 31,300 1,440 Climbing Kansas City Center
03:57PM 39.5383 -92.6875 81° East 508 585 33,100 2,100 Climbing Kansas City Center
03:58PM 39.5617 -92.4742 82° East 511 588 35,600 2,040 Climbing Kansas City Center
03:59PM 39.5797 -92.3064 82° East 492 566 37,400 1,200 Climbing Kansas City Center
04:00PM 39.5975 -92.1400 82° East 479 551 38,200 540 Climbing Kansas City Center
04:01PM 39.6164 -91.9689 82° East 480 552 38,600 360 Climbing Kansas City Center
04:02PM 39.6353 -91.7917 82° East 494 568 39,000 180 Climbing Kansas City Center
04:03PM 39.6547 -91.6167 82° East 495 570 39,000  Level Kansas City Center
04:04PM 39.6769 -91.4078 82° East 495 570 39,000  Level Kansas City Center
04:05PM 39.6942 -91.2361 83° East 494 568 39,000  Level Kansas City Center
04:06PM 39.7117 -91.0608 83° East 494 568 39,000  Level Kansas City Center
04:07PM 39.7292 -90.8858 83° East 493 567 39,000  Level Kansas City Center
04:08PM 39.7461 -90.7111 83° East 493 567 39,000  Level Kansas City Center
04:09PM 39.7622 -90.5408 83° East 487 560 39,000  Level Kansas City Center
04:10PM 39.7778 -90.3689 83° East 486 559 39,000  Level Kansas City Center
04:11PM 39.7975 -90.1619 83° East 486 559 39,000  Level Kansas City Center
04:12PM 39.8117 -89.9872 84° East 485 558 39,000  Level Kansas City Center
04:13PM 39.8278 -89.8119 83° East 486 559 39,000  Level Kansas City Center
04:14PM 39.8436 -89.6369 83° East 487 560 39,000  Level Kansas City Center
04:15PM 39.8619 -89.4617 82° East 488 562 39,000  Level Kansas City Center
04:16PM 39.8803 -89.2839 82° East 493 567 39,000  Level Kansas City Center
04:17PM 39.8981 -89.1056 83° East 494 568 39,000  Level Kansas City Center
04:19PM 39.9300 -88.7864 82° East 493 567 39,000  Level Indianapolis Center
04:20PM 39.9428 -88.6467 83° East 493 567 39,000  Level Indianapolis Center
04:21PM 39.9583 -88.4717 83° East 492 566 39,000  Level Indianapolis Center
04:22PM 39.9753 -88.2953 83° East 492 566 39,000  Level Indianapolis Center
04:23PM 39.9939 -88.0853 83° East 491 565 39,000  Level Indianapolis Center
04:24PM 40.0100 -87.9106 83° East 491 565 39,000  Level Indianapolis Center
04:25PM 40.0253 -87.7361 83° East 489 563 39,000  Level Indianapolis Center
04:26PM 40.0411 -87.5608 83° East 489 563 39,000  Level Indianapolis Center
04:27PM 40.0550 -87.3867 84° East 487 560 39,000  Level Indianapolis Center
04:28PM 40.0708 -87.2100 83° East 487 560 39,000  Level Indianapolis Center
04:29PM 40.0842 -87.0317 84° East 489 563 39,000  Level Indianapolis Center
04:30PM 40.0994 -86.8547 84° East 489 563 39,000  Level Indianapolis Center
04:31PM 40.1161 -86.6422 84° East 489 563 39,000  Level Indianapolis Center
04:32PM 40.1297 -86.4644 84° East 489 563 39,000  Level Indianapolis Center
04:33PM 40.1431 -86.2867 84° East 489 563 39,000  Level Indianapolis Center
04:34PM 40.1556 -86.1078 85° East 489 563 39,000  Level Indianapolis Center
04:35PM 40.1692 -85.9283 84° East 489 563 39,000  Level Indianapolis Center
04:36PM 40.1819 -85.7500 85° East 490 564 39,000  Level Indianapolis Center
04:37PM 40.1942 -85.5700 85° East 491 565 39,000  Level Indianapolis Center
04:38PM 40.2058 -85.3911 85° East 491 565 39,000  Level Indianapolis Center
04:39PM 40.2175 -85.2106 85° East 496 571 39,000  Level Indianapolis Center
04:40PM 40.2297 -85.0286 85° East 500 575 39,000  Level Indianapolis Center
04:41PM 40.2419 -84.8244 85° East 500 575 39,000  Level Indianapolis Center
04:42PM 40.2531 -84.6442 85° East 500 575 39,000  Level Indianapolis Center
04:44PM 40.2633 -84.4628 86° East 499 574 39,000  Level Indianapolis Center
04:45PM 40.2744 -84.2831 85° East 499 574 39,000  Level Indianapolis Center
04:46PM 40.2856 -84.1036 85° East 498 573 39,000  Level Indianapolis Center
04:47PM 40.3439 -83.9481 64° Northeast 485 558 39,000  Level Indianapolis Center
04:48PM 40.4244 -83.8092 53° Northeast 479 551 39,000  Level Indianapolis Center
04:49PM 40.5203 -83.6442 53° Northeast 476 548 39,000  Level Indianapolis Center
04:50PM 40.6006 -83.5075 52° Northeast 472 543 39,000  Level Indianapolis Center
04:51PM 40.6797 -83.3694 53° Northeast 472 543 39,000  Level Indianapolis Center
04:52PM 40.7583 -83.2306 53° Northeast 472 543 39,000  Level Indianapolis Center
04:53PM 40.8208 -83.0844 60° Northeast 478 550 39,000  Level Indianapolis Center
04:54PM 40.8697 -82.9181 69° East 480 552 39,000  Level Indianapolis Center
04:55PM 40.9181 -82.7531 69° East 480 552 39,000  Level Indianapolis Center
04:56PM 40.9750 -82.5603 69° East 480 552 39,000  Level Indianapolis Center
04:57PM 41.0231 -82.3958 69° East 479 551 39,000  Level Indianapolis Center
04:58PM 41.0725 -82.2300 68° East 479 551 39,000  Level Indianapolis Center
04:59PM 41.1194 -82.0644 69° East 479 551 39,000  Level Indianapolis Center
05:00PM 41.1661 -81.9006 69° East 478 550 39,000 -240 Level Indianapolis Center
05:01PM 41.2139 -81.7339 69° East 476 548 38,600 -660 Descending Indianapolis Center
05:02PM 41.2569 -81.5747 70° East 477 549 37,700 -840 Descending Indianapolis Center
05:03PM 41.3147 -81.3831 68° East 482 555 37,000 -360 Descending Indianapolis Center
05:04PM 41.3611 -81.2153 70° East 482 555 37,000  Level Indianapolis Center
05:05PM 41.4069 -81.0486 70° East 481 554 37,000  Level Indianapolis Center
05:07PM 41.4772 -80.7997 69° East 477 549 37,000  Level Cleveland Center
05:08PM 41.5247 -80.6317 69° East 479 551 37,000  Level Cleveland Center
05:09PM 41.5703 -80.4633 70° East 479 551 37,000  Level Cleveland Center
05:10PM 41.6103 -80.3103 71° East 479 551 37,000  Level Cleveland Center
05:11PM 41.6653 -80.1111 70° East 478 550 37,000  Level Cleveland Center
05:12PM 41.7058 -79.9583 70° East 478 550 37,000  Level Cleveland Center
05:13PM 41.7506 -79.7903 70° East 477 549 37,000  Level Cleveland Center
05:14PM 41.7978 -79.6089 71° East 475 547 37,000  Level Cleveland Center
05:15PM 41.8394 -79.4467 71° East 464 534 37,000  Level Cleveland Center
05:16PM 41.8819 -79.2839 71° East 465 535 37,000  Level Cleveland Center
05:17PM 41.9231 -79.1239 71° East 460 529 37,000  Level Cleveland Center
05:18PM 41.9633 -78.9639 71° East 457 526 37,000  Level Cleveland Center
05:19PM 42.0042 -78.8097 70° East 444 511 37,000  Level Cleveland Center
05:20PM 42.0517 -78.6217 71° East 443 510 37,000  Level Cleveland Center
05:21PM 42.0903 -78.4664 71° East 443 510 37,000  Level Cleveland Center
05:22PM 42.1297 -78.3058 72° East 447 514 37,000  Level Cleveland Center
05:23PM 42.1672 -78.1558 71° East 451 519 37,000  Level Cleveland Center
05:24PM 42.2139 -77.9653 72° East 451 519 37,000  Level Cleveland Center
05:25PM 42.2536 -77.8044 71° East 453 521 37,000  Level Cleveland Center
05:26PM 42.2917 -77.6442 72° East 453 521 37,000  Level Cleveland Center
05:27PM 42.3292 -77.4850 72° East 453 521 37,000  Level Cleveland Center
05:28PM 42.3672 -77.3264 72° East 453 521 37,000  Level Cleveland Center
05:29PM 42.3806 -77.1592 84° East 449 517 37,000  Level Cleveland Center
05:30PM 42.3919 -76.9578 86° East 453 521 37,000  Level Cleveland Center
05:31PM 42.4000 -76.7919 86° East 449 517 37,000  Level Cleveland Center
05:32PM 42.4078 -76.6278 86° East 443 510 37,000  Level Cleveland Center
05:33PM 42.4158 -76.4978 85° East 439 505 37,000  Level Boston Center
05:34PM 42.4228 -76.3322 87° East 440 506 37,000  Level Boston Center
05:35PM 42.4314 -76.1572 86° East 440 506 37,000  Level Boston Center
05:36PM 42.4389 -75.9931 86° East 439 505 37,000  Level Boston Center
05:37PM 42.4456 -75.8308 87° East 438 504 37,000  Level Boston Center
05:38PM 42.4536 -75.6672 86° East 438 504 37,000  Level Boston Center
05:39PM 42.4594 -75.5028 87° East 438 504 37,000  Level Boston Center
05:40PM 42.4667 -75.3400 87° East 438 504 37,000  Level Boston Center
05:41PM 42.4725 -75.1758 87° East 438 504 37,000  Level Boston Center
05:42PM 42.4781 -75.0111 87° East 439 505 37,000  Level Boston Center
05:43PM 42.4842 -74.8472 87° East 440 506 37,000  Level Boston Center
05:44PM 42.4906 -74.6469 87° East 442 509 37,000  Level Boston Center
05:45PM 42.4944 -74.4808 88° East 444 511 37,000  Level Boston Center
05:46PM 42.5003 -74.3364 87° East 444 511 37,000  Level Boston Center
05:47PM 42.5069 -74.1358 87° East 444 511 37,000  Level Boston Center
05:48PM 42.5117 -73.9678 88° East 446 513 37,000 -360 Level Boston Center
05:49PM 42.5153 -73.8000 88° East 446 513 36,300 -840 Descending Boston Center
05:50PM 42.5194 -73.6308 88° East 449 517 35,400 -900 Descending Boston Center
05:51PM 42.5233 -73.4608 88° East 449 517 34,500 -900 Descending Boston Center
05:52PM 42.5275 -73.2858 88° East 459 528 33,600 -960 Descending Boston Center
05:53PM 42.5314 -73.1069 88° East 471 542 32,600 -1,080 Descending Boston Center
05:54PM 42.5269 -72.9058 92° East 476 548 31,500 -1,980 Descending Boston Center
05:55PM 42.5247 -72.7258 91° East 481 554 28,600 -2,760 Descending Boston Center
05:56PM 42.5219 -72.5486 91° East 476 548 25,900 -2,640 Descending Boston Center
05:57PM 42.5203 -72.3753 91° East 463 533 23,200 -2,520 Descending Boston Center
05:58PM 42.5169 -72.2167 92° East 448 516 20,800 -2,580 Descending Boston Center
05:59PM 42.5122 -72.0331 92° East 428 493 18,000 -2,640 Descending Boston Center
06:00PM 42.5108 -71.8814 91° East 409 471 15,500 -2,580 Descending Boston Center
06:02PM 42.5069 -71.7247 92° East 392 451 12,800 -2,220 Descending Boston Center
06:03PM 42.5042 -71.5864 92° East 372 428 11,100 -900 Descending Boston Center
06:04PM 42.5006 -71.4547 92° East 357 411 11,000 -60 Descending Boston Center
06:05PM 42.4694 -71.3158 107° East 361 415 11,000 -240 Level Boston Center
06:06PM 42.4428 -71.1961 107° East 336 387 10,600 -840 Descending Boston Center
06:07PM 42.4169 -71.0900 108° East 303 349 9,300 -1,500 Descending Boston Center
06:08PM 42.3917 -70.9858 108° East 297 342 7,600 -1,560 Descending Boston Center
06:08PM 42.3333 -70.9667 166° South 289 333 6,500 -1,200 Descending KA90
06:09PM 42.2500 -70.9500 172° South 274 315 5,500 -1,320 Descending KA90
06:10PM 42.2167 -71.0000 228° Southwest 228 262 4,000 -1,860 Descending KA90
06:11PM 42.2667 -71.0500 324° Northwest 207 238 2,000 -1,500 Descending KA90
06:12PM 42.3000 -71.0333 20° North 161 185 1,000 -900 Descending KA90
06:13PM 42.3500 -71.0167 14° North 139 160 200 -840 Descending KA90
06:16PM 42.3630 -71.0064 200° South  Level Estimated